sensor_id;sensor_type;location;lat;lon;timestamp;P1;durP1;ratioP1;P2;durP2;ratioP2
73872;SDS011;62206;47.568;9.364;2023-11-19T00:00:26;6.45;;;4.70;;
73872;SDS011;62206;47.568;9.364;2023-11-19T00:02:54;6.68;;;4.20;;
73872;SDS011;62206;47.568;9.364;2023-11-19T00:05:21;8.65;;;4.53;;
73872;SDS011;62206;47.568;9.364;2023-11-19T00:07:49;4.38;;;4.07;;
73872;SDS011;62206;47.568;9.364;2023-11-19T00:10:17;3.50;;;3.17;;
73872;SDS011;62206;47.568;9.364;2023-11-19T00:12:46;4.50;;;3.70;;
73872;SDS011;62206;47.568;9.364;2023-11-19T00:15:13;5.03;;;4.53;;
73872;SDS011;62206;47.568;9.364;2023-11-19T00:17:41;6.55;;;4.05;;
73872;SDS011;62206;47.568;9.364;2023-11-19T00:20:10;4.40;;;4.00;;
73872;SDS011;62206;47.568;9.364;2023-11-19T00:22:37;4.97;;;4.35;;
73872;SDS011;62206;47.568;9.364;2023-11-19T00:25:07;4.88;;;4.43;;
73872;SDS011;62206;47.568;9.364;2023-11-19T00:27:34;4.63;;;4.20;;
73872;SDS011;62206;47.568;9.364;2023-11-19T00:30:01;5.15;;;4.00;;
73872;SDS011;62206;47.568;9.364;2023-11-19T00:32:31;5.38;;;4.88;;
73872;SDS011;62206;47.568;9.364;2023-11-19T00:34:58;5.47;;;4.90;;
73872;SDS011;62206;47.568;9.364;2023-11-19T00:37:25;6.80;;;5.00;;
73872;SDS011;62206;47.568;9.364;2023-11-19T00:39:52;5.45;;;4.53;;
73872;SDS011;62206;47.568;9.364;2023-11-19T00:42:22;4.78;;;4.38;;
73872;SDS011;62206;47.568;9.364;2023-11-19T00:44:50;5.25;;;4.38;;
73872;SDS011;62206;47.568;9.364;2023-11-19T00:47:18;6.07;;;4.80;;
73872;SDS011;62206;47.568;9.364;2023-11-19T00:49:46;7.70;;;4.47;;
73872;SDS011;62206;47.568;9.364;2023-11-19T00:52:15;4.30;;;3.95;;
73872;SDS011;62206;47.568;9.364;2023-11-19T00:54:41;5.82;;;5.00;;
73872;SDS011;62206;47.568;9.364;2023-11-19T00:57:08;4.55;;;4.13;;
73872;SDS011;62206;47.568;9.364;2023-11-19T00:59:36;4.60;;;4.18;;
73872;SDS011;62206;47.568;9.364;2023-11-19T01:04:33;5.05;;;4.05;;
73872;SDS011;62206;47.568;9.364;2023-11-19T01:07:01;4.55;;;4.18;;
73872;SDS011;62206;47.568;9.364;2023-11-19T01:09:31;4.75;;;4.35;;
73872;SDS011;62206;47.568;9.364;2023-11-19T01:11:59;4.72;;;3.83;;
73872;SDS011;62206;47.568;9.364;2023-11-19T01:14:26;5.68;;;4.40;;
73872;SDS011;62206;47.568;9.364;2023-11-19T01:16:55;4.38;;;3.97;;
73872;SDS011;62206;47.568;9.364;2023-11-19T01:19:22;6.03;;;4.60;;
73872;SDS011;62206;47.568;9.364;2023-11-19T01:21:49;6.18;;;4.00;;
73872;SDS011;62206;47.568;9.364;2023-11-19T01:24:17;5.72;;;5.22;;
73872;SDS011;62206;47.568;9.364;2023-11-19T01:26:43;5.68;;;4.35;;
73872;SDS011;62206;47.568;9.364;2023-11-19T01:29:11;5.80;;;4.90;;
73872;SDS011;62206;47.568;9.364;2023-11-19T01:31:39;4.97;;;4.50;;
73872;SDS011;62206;47.568;9.364;2023-11-19T01:34:07;4.82;;;4.43;;
73872;SDS011;62206;47.568;9.364;2023-11-19T01:36:34;5.18;;;4.78;;
73872;SDS011;62206;47.568;9.364;2023-11-19T01:39:01;4.50;;;3.75;;
73872;SDS011;62206;47.568;9.364;2023-11-19T01:41:33;5.45;;;4.80;;
73872;SDS011;62206;47.568;9.364;2023-11-19T01:44:01;5.00;;;4.57;;
73872;SDS011;62206;47.568;9.364;2023-11-19T01:46:29;4.93;;;4.15;;
73872;SDS011;62206;47.568;9.364;2023-11-19T01:51:30;5.43;;;4.80;;
73872;SDS011;62206;47.568;9.364;2023-11-19T01:53:57;5.05;;;4.50;;
73872;SDS011;62206;47.568;9.364;2023-11-19T01:56:24;5.00;;;4.10;;
73872;SDS011;62206;47.568;9.364;2023-11-19T01:58:53;4.90;;;3.88;;
73872;SDS011;62206;47.568;9.364;2023-11-19T02:01:21;4.72;;;4.25;;
73872;SDS011;62206;47.568;9.364;2023-11-19T02:03:48;4.60;;;4.20;;
73872;SDS011;62206;47.568;9.364;2023-11-19T02:06:16;4.50;;;4.10;;
73872;SDS011;62206;47.568;9.364;2023-11-19T02:08:45;4.97;;;3.67;;
73872;SDS011;62206;47.568;9.364;2023-11-19T02:11:11;5.72;;;4.50;;
73872;SDS011;62206;47.568;9.364;2023-11-19T02:13:39;4.85;;;4.25;;
73872;SDS011;62206;47.568;9.364;2023-11-19T02:16:07;4.57;;;4.05;;
73872;SDS011;62206;47.568;9.364;2023-11-19T02:18:36;4.40;;;3.50;;
73872;SDS011;62206;47.568;9.364;2023-11-19T02:21:03;3.92;;;3.53;;
73872;SDS011;62206;47.568;9.364;2023-11-19T02:23:31;2.70;;;2.23;;
73872;SDS011;62206;47.568;9.364;2023-11-19T02:26:02;2.50;;;2.30;;
73872;SDS011;62206;47.568;9.364;2023-11-19T02:28:36;2.88;;;2.45;;
73872;SDS011;62206;47.568;9.364;2023-11-19T02:31:03;1.80;;;1.70;;
73872;SDS011;62206;47.568;9.364;2023-11-19T02:33:35;1.50;;;1.40;;
73872;SDS011;62206;47.568;9.364;2023-11-19T02:36:02;3.15;;;1.40;;
73872;SDS011;62206;47.568;9.364;2023-11-19T02:38:30;4.07;;;2.00;;
73872;SDS011;62206;47.568;9.364;2023-11-19T02:40:57;2.28;;;2.10;;
73872;SDS011;62206;47.568;9.364;2023-11-19T02:43:25;1.60;;;1.50;;
73872;SDS011;62206;47.568;9.364;2023-11-19T02:45:54;4.00;;;3.47;;
73872;SDS011;62206;47.568;9.364;2023-11-19T02:48:22;4.28;;;3.88;;
73872;SDS011;62206;47.568;9.364;2023-11-19T02:50:48;4.40;;;4.00;;
73872;SDS011;62206;47.568;9.364;2023-11-19T02:53:15;6.03;;;3.90;;
73872;SDS011;62206;47.568;9.364;2023-11-19T02:55:43;5.17;;;4.77;;
73872;SDS011;62206;47.568;9.364;2023-11-19T02:58:13;5.50;;;4.80;;
73872;SDS011;62206;47.568;9.364;2023-11-19T03:00:49;4.57;;;4.20;;
73872;SDS011;62206;47.568;9.364;2023-11-19T03:03:23;5.50;;;4.88;;
73872;SDS011;62206;47.568;9.364;2023-11-19T03:05:54;5.95;;;4.53;;
73872;SDS011;62206;47.568;9.364;2023-11-19T03:08:21;4.40;;;4.00;;
73872;SDS011;62206;47.568;9.364;2023-11-19T03:10:48;3.83;;;2.95;;
73872;SDS011;62206;47.568;9.364;2023-11-19T03:13:16;2.70;;;1.83;;
73872;SDS011;62206;47.568;9.364;2023-11-19T03:15:43;3.15;;;1.90;;
73872;SDS011;62206;47.568;9.364;2023-11-19T03:18:09;3.42;;;2.75;;
73872;SDS011;62206;47.568;9.364;2023-11-19T03:20:38;2.20;;;2.00;;
73872;SDS011;62206;47.568;9.364;2023-11-19T03:23:05;3.42;;;2.50;;
73872;SDS011;62206;47.568;9.364;2023-11-19T03:25:32;2.50;;;2.15;;
73872;SDS011;62206;47.568;9.364;2023-11-19T03:28:02;5.13;;;2.25;;
73872;SDS011;62206;47.568;9.364;2023-11-19T03:30:29;3.03;;;2.45;;
73872;SDS011;62206;47.568;9.364;2023-11-19T03:32:57;2.42;;;2.25;;
73872;SDS011;62206;47.568;9.364;2023-11-19T03:35:25;2.97;;;2.38;;
73872;SDS011;62206;47.568;9.364;2023-11-19T03:37:54;4.20;;;2.47;;
73872;SDS011;62206;47.568;9.364;2023-11-19T03:40:21;2.70;;;2.38;;
73872;SDS011;62206;47.568;9.364;2023-11-19T03:42:49;3.05;;;2.75;;
73872;SDS011;62206;47.568;9.364;2023-11-19T03:45:18;3.83;;;3.03;;
73872;SDS011;62206;47.568;9.364;2023-11-19T03:47:45;3.35;;;2.72;;
73872;SDS011;62206;47.568;9.364;2023-11-19T03:50:12;3.35;;;3.05;;
73872;SDS011;62206;47.568;9.364;2023-11-19T03:52:41;3.75;;;3.45;;
73872;SDS011;62206;47.568;9.364;2023-11-19T03:55:09;5.25;;;4.30;;
73872;SDS011;62206;47.568;9.364;2023-11-19T03:57:38;5.78;;;5.20;;
73872;SDS011;62206;47.568;9.364;2023-11-19T04:00:04;5.43;;;4.43;;
73872;SDS011;62206;47.568;9.364;2023-11-19T04:02:35;4.68;;;4.13;;
73872;SDS011;62206;47.568;9.364;2023-11-19T04:05:02;5.45;;;4.93;;
73872;SDS011;62206;47.568;9.364;2023-11-19T04:07:29;4.32;;;3.92;;
73872;SDS011;62206;47.568;9.364;2023-11-19T04:09:56;4.65;;;4.10;;
73872;SDS011;62206;47.568;9.364;2023-11-19T04:12:25;5.13;;;3.67;;
73872;SDS011;62206;47.568;9.364;2023-11-19T04:14:52;5.43;;;4.45;;
73872;SDS011;62206;47.568;9.364;2023-11-19T04:17:19;3.80;;;3.25;;
73872;SDS011;62206;47.568;9.364;2023-11-19T04:19:46;4.03;;;3.63;;
73872;SDS011;62206;47.568;9.364;2023-11-19T04:22:13;4.35;;;3.80;;
73872;SDS011;62206;47.568;9.364;2023-11-19T04:24:40;4.38;;;4.07;;
73872;SDS011;62206;47.568;9.364;2023-11-19T04:27:09;3.75;;;3.45;;
73872;SDS011;62206;47.568;9.364;2023-11-19T04:29:37;4.28;;;3.42;;
73872;SDS011;62206;47.568;9.364;2023-11-19T04:32:04;3.00;;;2.78;;
73872;SDS011;62206;47.568;9.364;2023-11-19T04:34:33;3.28;;;2.50;;
73872;SDS011;62206;47.568;9.364;2023-11-19T04:36:59;3.13;;;2.70;;
73872;SDS011;62206;47.568;9.364;2023-11-19T04:39:28;2.72;;;2.53;;
73872;SDS011;62206;47.568;9.364;2023-11-19T04:41:56;2.85;;;2.60;;
73872;SDS011;62206;47.568;9.364;2023-11-19T04:44:22;3.65;;;3.35;;
73872;SDS011;62206;47.568;9.364;2023-11-19T04:46:51;5.97;;;2.58;;
73872;SDS011;62206;47.568;9.364;2023-11-19T04:49:20;2.90;;;2.58;;
73872;SDS011;62206;47.568;9.364;2023-11-19T04:51:47;3.65;;;2.95;;
73872;SDS011;62206;47.568;9.364;2023-11-19T04:54:13;3.25;;;2.75;;
73872;SDS011;62206;47.568;9.364;2023-11-19T04:56:45;3.67;;;2.65;;
73872;SDS011;62206;47.568;9.364;2023-11-19T04:59:12;7.55;;;3.00;;
73872;SDS011;62206;47.568;9.364;2023-11-19T05:01:39;3.13;;;2.75;;
73872;SDS011;62206;47.568;9.364;2023-11-19T05:04:08;3.58;;;2.53;;
73872;SDS011;62206;47.568;9.364;2023-11-19T05:06:35;2.85;;;2.53;;
73872;SDS011;62206;47.568;9.364;2023-11-19T05:09:02;2.92;;;2.72;;
73872;SDS011;62206;47.568;9.364;2023-11-19T05:11:33;3.53;;;3.13;;
73872;SDS011;62206;47.568;9.364;2023-11-19T05:13:59;2.72;;;2.40;;
73872;SDS011;62206;47.568;9.364;2023-11-19T05:16:29;4.13;;;3.40;;
73872;SDS011;62206;47.568;9.364;2023-11-19T05:18:56;3.42;;;3.13;;
73872;SDS011;62206;47.568;9.364;2023-11-19T05:21:24;3.35;;;2.88;;
73872;SDS011;62206;47.568;9.364;2023-11-19T05:23:51;3.90;;;2.30;;
73872;SDS011;62206;47.568;9.364;2023-11-19T05:26:18;3.72;;;2.25;;
73872;SDS011;62206;47.568;9.364;2023-11-19T05:28:46;2.55;;;1.40;;
73872;SDS011;62206;47.568;9.364;2023-11-19T05:31:13;3.70;;;1.98;;
73872;SDS011;62206;47.568;9.364;2023-11-19T05:33:40;1.77;;;1.67;;
73872;SDS011;62206;47.568;9.364;2023-11-19T05:36:07;1.38;;;1.27;;
73872;SDS011;62206;47.568;9.364;2023-11-19T05:38:36;3.28;;;1.75;;
